createdAt,value
2023-02-08T00:02:10.044Z,-6.10
2023-02-08T00:04:58.450Z,-4.80
2023-02-08T00:07:45.751Z,-6.10
2023-02-08T00:10:33.075Z,-6.40
2023-02-08T00:13:20.323Z,-6.20
2023-02-08T00:16:09.023Z,-6.20
2023-02-08T00:18:56.338Z,-6.10
2023-02-08T00:21:45.021Z,-6.30
2023-02-08T00:24:32.164Z,-6.20
2023-02-08T00:27:20.531Z,-6.20
2023-02-08T00:30:17.879Z,-6.30
2023-02-08T00:33:07.413Z,-6.30
2023-02-08T00:36:03.643Z,-6.30
2023-02-08T00:38:58.175Z,-6.20
2023-02-08T00:41:45.952Z,-6.30
2023-02-08T00:44:34.428Z,-6.30
2023-02-08T00:47:25.182Z,-5.90
2023-02-08T00:50:16.793Z,-6.40
2023-02-08T00:53:09.425Z,-6.50
2023-02-08T00:56:31.068Z,-6.40
2023-02-08T00:59:25.203Z,-6.40
2023-02-08T01:02:15.331Z,-6.50
2023-02-08T01:05:05.319Z,-6.60
2023-02-08T01:07:55.159Z,-6.80
2023-02-08T01:10:47.226Z,-6.70
2023-02-08T01:13:38.018Z,-6.80
2023-02-08T01:16:28.036Z,-6.80
2023-02-08T01:19:16.846Z,-6.60
2023-02-08T01:22:05.514Z,-6.80
2023-02-08T01:24:54.353Z,-6.80
2023-02-08T01:27:43.316Z,-6.80
2023-02-08T01:30:32.725Z,-6.90
2023-02-08T01:33:20.349Z,-6.90
2023-02-08T01:36:10.729Z,-6.90
2023-02-08T01:39:05.306Z,-7.10
2023-02-08T01:41:59.181Z,-7.20
2023-02-08T01:45:31.028Z,-7.10
2023-02-08T01:48:28.834Z,-7.10
2023-02-08T01:51:21.762Z,-7.10
2023-02-08T01:54:13.048Z,-7.10
2023-02-08T01:57:02.633Z,-7.20
2023-02-08T01:59:55.666Z,-7.20
2023-02-08T02:03:44.831Z,-7.30
2023-02-08T02:06:39.144Z,-7.30
2023-02-08T02:09:42.094Z,-7.50
2023-02-08T02:12:32.654Z,-7.60
2023-02-08T02:15:20.935Z,-6.80
2023-02-08T02:18:10.315Z,-7.50
2023-02-08T02:21:17.688Z,-7.50
2023-02-08T02:24:35.792Z,-7.60
2023-02-08T02:28:01.564Z,-7.60
2023-02-08T02:31:21.563Z,-7.70
2023-02-08T02:34:21.607Z,-7.60
2023-02-08T02:37:23.705Z,-7.60
2023-02-08T02:40:21.652Z,-7.60
2023-02-08T02:43:33.408Z,-7.70
2023-02-08T02:46:28.423Z,-7.70
2023-02-08T02:49:23.598Z,-7.80
2023-02-08T02:52:18.060Z,-7.40
2023-02-08T02:55:10.477Z,-7.70
2023-02-08T02:58:00.376Z,-7.80
2023-02-08T03:00:55.671Z,-7.90
2023-02-08T03:03:43.968Z,-7.90
2023-02-08T03:06:44.012Z,-8.00
2023-02-08T03:09:48.365Z,-8.00
2023-02-08T03:12:44.646Z,-8.10
2023-02-08T03:15:42.093Z,-8.10
2023-02-08T03:18:37.493Z,-8.10
2023-02-08T03:21:37.047Z,-8.10
2023-02-08T03:24:34.861Z,-8.10
2023-02-08T03:27:33.049Z,-8.10
2023-02-08T03:30:24.649Z,-8.10
2023-02-08T03:33:22.800Z,-8.20
2023-02-08T03:36:15.847Z,-8.20
2023-02-08T03:39:08.013Z,-8.30
2023-02-08T03:42:00.055Z,-8.30
2023-02-08T03:44:51.324Z,-8.40
2023-02-08T03:47:41.935Z,-8.40
2023-02-08T03:50:31.114Z,-8.40
2023-02-08T03:53:20.951Z,-8.40
2023-02-08T03:56:15.353Z,-8.50
2023-02-08T03:59:08.541Z,-8.50
2023-02-08T04:02:00.186Z,-8.50
2023-02-08T04:04:49.944Z,-8.60
2023-02-08T04:07:36.696Z,-8.60
2023-02-08T04:10:23.925Z,-8.70
2023-02-08T04:13:10.959Z,-8.60
2023-02-08T04:15:59.550Z,-8.60
2023-02-08T04:18:46.747Z,-8.70
2023-02-08T04:21:33.355Z,-8.70
2023-02-08T04:24:20.297Z,-8.70
2023-02-08T04:27:07.486Z,-8.70
2023-02-08T04:29:54.711Z,-8.70
2023-02-08T04:32:42.965Z,-8.80
2023-02-08T04:35:29.931Z,-8.70
2023-02-08T04:38:19.734Z,-8.70
2023-02-08T04:41:06.829Z,-8.70
2023-02-08T04:43:54.102Z,-8.70
2023-02-08T04:46:41.577Z,-8.70
2023-02-08T04:49:30.133Z,-8.90
2023-02-08T04:52:17.119Z,-8.90
2023-02-08T04:55:04.326Z,-8.90
2023-02-08T04:57:51.359Z,-8.90
2023-02-08T05:00:38.797Z,-8.90
2023-02-08T05:03:25.922Z,-8.90
2023-02-08T05:06:15.524Z,-9.00
2023-02-08T05:09:02.489Z,-9.00
2023-02-08T05:11:49.588Z,-9.00
2023-02-08T05:14:37.068Z,-9.00
2023-02-08T05:17:24.000Z,-8.70
2023-02-08T05:20:12.634Z,-9.00
2023-02-08T05:23:00.902Z,-8.90
2023-02-08T05:25:47.576Z,-8.80
2023-02-08T05:28:34.711Z,-8.80
2023-02-08T05:31:24.635Z,-8.90
2023-02-08T05:34:12.364Z,-8.80
2023-02-08T05:36:59.464Z,-8.90
2023-02-08T05:39:47.644Z,-8.90
2023-02-08T05:42:34.577Z,-8.80
2023-02-08T05:45:21.367Z,-8.80
2023-02-08T05:48:08.404Z,-8.90
2023-02-08T05:50:55.638Z,-8.80
2023-02-08T05:53:43.582Z,-8.80
2023-02-08T05:56:32.218Z,-8.80
2023-02-08T05:59:18.814Z,-8.80
2023-02-08T06:02:06.001Z,-8.80
2023-02-08T06:04:52.866Z,-8.80
2023-02-08T06:07:39.860Z,-8.80
2023-02-08T06:10:27.072Z,-8.90
2023-02-08T06:13:15.933Z,-9.00
2023-02-08T06:16:02.881Z,-8.90
2023-02-08T06:18:49.977Z,-9.10
2023-02-08T06:21:36.817Z,-9.00
2023-02-08T06:24:25.310Z,-9.00
2023-02-08T06:27:12.164Z,-9.00
2023-02-08T06:30:00.373Z,-9.00
2023-02-08T06:32:47.467Z,-9.00
2023-02-08T06:35:34.729Z,-9.00
2023-02-08T06:38:21.843Z,-9.00
2023-02-08T06:41:08.755Z,-9.00
2023-02-08T06:43:59.146Z,-9.00
2023-02-08T06:46:47.501Z,-9.00
2023-02-08T06:49:34.345Z,-9.10
2023-02-08T06:52:22.210Z,-9.00
2023-02-08T06:55:09.700Z,-9.00
2023-02-08T06:57:57.117Z,-9.00
2023-02-08T07:00:45.456Z,-8.90
2023-02-08T07:03:33.719Z,-8.90
2023-02-08T07:06:21.816Z,-9.00
2023-02-08T07:09:09.080Z,-9.00
2023-02-08T07:11:55.995Z,-8.90
2023-02-08T07:14:44.850Z,-8.80
2023-02-08T07:17:32.150Z,-8.80
2023-02-08T07:20:20.719Z,-8.70
2023-02-08T07:23:07.661Z,-8.70
2023-02-08T07:25:59.646Z,-8.60
2023-02-08T07:28:46.565Z,-8.60
2023-02-08T07:31:33.727Z,-8.50
2023-02-08T07:34:22.081Z,-8.50
2023-02-08T07:37:10.247Z,-8.50
2023-02-08T07:39:57.126Z,-8.50
2023-02-08T07:42:44.474Z,-8.40
2023-02-08T07:45:32.072Z,-8.20
2023-02-08T07:48:19.332Z,-8.10
2023-02-08T07:51:06.910Z,-7.90
2023-02-08T07:53:55.184Z,-7.80
2023-02-08T07:56:42.250Z,-7.70
2023-02-08T07:59:29.185Z,-7.50
2023-02-08T08:02:17.066Z,-7.30
2023-02-08T08:05:04.015Z,-6.20
2023-02-08T08:07:50.921Z,-4.90
2023-02-08T08:10:40.284Z,-3.40
2023-02-08T08:13:27.574Z,-2.50
2023-02-08T08:16:15.348Z,-1.30
2023-02-08T08:19:02.366Z,-0.80
2023-02-08T08:21:49.888Z,-0.40
2023-02-08T08:24:36.831Z,0.60
2023-02-08T08:27:25.636Z,1.60
2023-02-08T08:30:14.650Z,1.20
2023-02-08T08:33:01.563Z,2.70
2023-02-08T08:35:48.376Z,3.40
2023-02-08T08:38:35.588Z,3.10
2023-02-08T08:41:23.205Z,3.70
2023-02-08T08:44:11.459Z,3.00
2023-02-08T08:46:58.711Z,3.60
2023-02-08T08:49:45.992Z,3.90
2023-02-08T08:52:32.999Z,4.80
2023-02-08T08:55:20.214Z,5.40
2023-02-08T08:58:06.885Z,5.70
2023-02-08T09:00:57.092Z,6.30
2023-02-08T09:03:43.805Z,5.60
2023-02-08T09:06:30.941Z,4.90
2023-02-08T09:09:17.460Z,5.60
2023-02-08T09:12:05.722Z,5.50
2023-02-08T09:14:52.627Z,3.90
2023-02-08T09:17:40.912Z,3.20
2023-02-08T09:20:27.883Z,2.80
2023-02-08T09:23:15.195Z,3.30
2023-02-08T09:26:03.787Z,3.90
2023-02-08T09:28:50.848Z,3.60
2023-02-08T09:31:39.538Z,4.30
2023-02-08T09:34:28.244Z,3.20
2023-02-08T09:37:17.286Z,4.80
2023-02-08T09:40:04.783Z,4.80
2023-02-08T09:42:59.526Z,2.90
2023-02-08T09:45:59.918Z,3.30
2023-02-08T09:48:49.168Z,4.00
2023-02-08T09:51:40.772Z,4.40
2023-02-08T09:54:33.208Z,5.20
2023-02-08T09:57:25.530Z,5.80
2023-02-08T10:00:16.911Z,5.90
2023-02-08T10:03:04.731Z,5.90
2023-02-08T10:05:51.887Z,4.30
2023-02-08T10:08:44.970Z,4.60
2023-02-08T10:11:48.364Z,4.90
2023-02-08T10:14:47.877Z,3.80
2023-02-08T10:17:48.629Z,3.80
2023-02-08T10:20:50.040Z,4.10
2023-02-08T10:23:53.496Z,5.30
2023-02-08T10:26:46.820Z,4.70
2023-02-08T10:29:48.341Z,5.20
2023-02-08T10:32:56.215Z,5.80
2023-02-08T10:35:48.731Z,5.30
2023-02-08T10:38:45.960Z,5.90
2023-02-08T10:41:38.742Z,4.90
2023-02-08T10:44:34.419Z,4.20
2023-02-08T10:47:37.176Z,5.40
2023-02-08T10:50:31.336Z,5.10
2023-02-08T10:53:20.416Z,5.80
2023-02-08T10:56:07.985Z,5.90
2023-02-08T10:58:56.573Z,6.60
2023-02-08T11:01:44.704Z,4.70
2023-02-08T11:04:31.578Z,4.70
2023-02-08T11:07:22.265Z,4.20
2023-02-08T11:10:30.100Z,4.10
2023-02-08T11:13:20.636Z,3.40
2023-02-08T11:16:13.555Z,3.80
2023-02-08T11:19:03.337Z,3.60
2023-02-08T11:21:53.117Z,3.70
2023-02-08T11:24:41.636Z,4.80
2023-02-08T11:27:34.690Z,4.80
2023-02-08T11:30:24.819Z,4.90
2023-02-08T11:33:19.576Z,4.00
2023-02-08T11:36:09.903Z,4.20
2023-02-08T11:38:58.240Z,4.80
2023-02-08T11:41:46.217Z,3.70
2023-02-08T11:44:35.815Z,3.60
2023-02-08T11:47:26.197Z,3.30
2023-02-08T11:50:26.969Z,3.30
2023-02-08T11:53:28.015Z,4.30
2023-02-08T11:56:20.944Z,3.70
2023-02-08T11:59:21.180Z,3.50
2023-02-08T12:02:41.223Z,3.60
2023-02-08T12:05:41.640Z,3.30
2023-02-08T12:08:37.460Z,2.70
2023-02-08T12:11:30.277Z,2.60
2023-02-08T12:14:34.335Z,2.50
2023-02-08T12:17:40.160Z,2.70
2023-02-08T12:20:40.437Z,3.20
2023-02-08T12:23:42.836Z,3.80
2023-02-08T12:26:49.675Z,4.60
2023-02-08T12:29:47.820Z,4.60
2023-02-08T12:32:53.243Z,3.40
2023-02-08T12:36:04.231Z,3.00
2023-02-08T12:39:26.305Z,3.00
2023-02-08T12:42:34.171Z,3.10
2023-02-08T12:45:49.118Z,3.20
2023-02-08T12:48:57.942Z,3.10
2023-02-08T12:51:53.474Z,3.50
2023-02-08T12:54:44.275Z,3.40
2023-02-08T12:57:32.718Z,2.80
2023-02-08T13:00:23.097Z,2.80
2023-02-08T13:03:19.054Z,3.00
2023-02-08T13:06:08.835Z,2.10
2023-02-08T13:09:04.536Z,2.90
2023-02-08T13:11:56.471Z,2.70
2023-02-08T13:14:47.020Z,2.40
2023-02-08T13:17:43.568Z,2.40
2023-02-08T13:20:38.451Z,2.20
2023-02-08T13:23:28.264Z,2.00
2023-02-08T13:26:18.504Z,2.00
2023-02-08T13:29:06.018Z,2.30
2023-02-08T13:31:57.756Z,2.20
2023-02-08T13:34:49.749Z,2.20
2023-02-08T13:37:37.669Z,2.30
2023-02-08T13:40:28.967Z,2.40
2023-02-08T13:43:34.775Z,2.70
2023-02-08T13:46:24.283Z,2.80
2023-02-08T13:49:52.368Z,3.00
2023-02-08T13:53:00.103Z,3.00
2023-02-08T13:55:59.503Z,2.80
2023-02-08T13:59:01.808Z,2.80
2023-02-08T14:02:24.838Z,2.90
2023-02-08T14:05:44.675Z,2.90
2023-02-08T14:08:41.388Z,2.80
2023-02-08T14:11:41.012Z,2.80
2023-02-08T14:14:30.313Z,2.70
2023-02-08T14:17:21.748Z,2.50
2023-02-08T14:20:09.400Z,2.60
2023-02-08T14:22:59.838Z,2.60
2023-02-08T14:25:50.438Z,2.40
2023-02-08T14:28:40.404Z,2.40
2023-02-08T14:31:42.474Z,2.30
2023-02-08T15:13:51.223Z,1.40
2023-02-08T15:16:45.296Z,1.40
2023-02-08T15:19:35.234Z,1.20
2023-02-08T15:22:33.519Z,1.20
2023-02-08T15:25:26.138Z,1.20
2023-02-08T15:28:21.402Z,1.10
2023-02-08T15:31:14.694Z,1.00
2023-02-08T15:34:03.314Z,0.90
2023-02-08T15:36:52.220Z,0.90
2023-02-08T15:39:40.547Z,0.90
2023-02-08T15:42:29.962Z,0.80
2023-02-08T15:45:25.730Z,0.60
2023-02-08T15:48:14.568Z,0.50
2023-02-08T15:51:03.187Z,0.40
2023-02-08T15:53:53.089Z,0.30
2023-02-08T15:56:42.536Z,0.10
2023-02-08T15:59:33.178Z,0.00
2023-02-08T16:02:27.757Z,-0.10
2023-02-08T16:05:23.643Z,-0.20
2023-02-08T16:08:22.140Z,-0.30
2023-02-08T16:11:12.670Z,-0.40
2023-02-08T16:14:02.035Z,-0.50
2023-02-08T16:16:50.978Z,-0.60
2023-02-08T16:19:37.833Z,-0.80
2023-02-08T16:22:30.963Z,-0.80
2023-02-08T16:25:25.033Z,-1.00
2023-02-08T16:28:27.285Z,-1.10
2023-02-08T16:31:20.778Z,-1.10
2023-02-08T16:34:14.728Z,-1.20
2023-02-08T16:37:03.265Z,-1.20
2023-02-08T16:39:56.791Z,-1.30
2023-02-08T16:42:44.318Z,-1.30
2023-02-08T16:45:31.003Z,-1.40
2023-02-08T16:48:35.999Z,-1.50
2023-02-08T16:51:25.462Z,-1.60
2023-02-08T16:54:15.386Z,-1.60
2023-02-08T16:57:03.989Z,-1.60
2023-02-08T16:59:52.050Z,-1.70
2023-02-08T17:02:38.830Z,-1.80
2023-02-08T17:05:29.603Z,-1.80
2023-02-08T17:08:19.016Z,-1.90
2023-02-08T17:11:06.422Z,-1.90
2023-02-08T17:13:55.165Z,-2.00
2023-02-08T17:16:41.861Z,-2.00
2023-02-08T17:19:28.573Z,-2.10
2023-02-08T17:22:15.490Z,-2.10
2023-02-08T17:25:02.297Z,-2.20
2023-02-08T17:27:53.130Z,-2.30
2023-02-08T17:30:43.365Z,-2.30
2023-02-08T17:33:33.246Z,-2.40
2023-02-08T17:36:20.118Z,-2.40
2023-02-08T17:39:07.404Z,-2.40
2023-02-08T17:41:54.496Z,-2.50
2023-02-08T17:44:41.758Z,-2.60
2023-02-08T17:47:29.915Z,-2.70
2023-02-08T17:50:19.386Z,-2.70
2023-02-08T17:53:06.363Z,-2.80
2023-02-08T17:55:52.964Z,-2.90
2023-02-08T17:58:39.650Z,-2.90
2023-02-08T18:01:28.234Z,-3.00
2023-02-08T18:04:16.883Z,-3.10
2023-02-08T18:07:03.912Z,-3.00
2023-02-08T18:09:50.692Z,-3.10
2023-02-08T18:12:38.225Z,-3.20
2023-02-08T18:15:25.295Z,-3.20
2023-02-08T18:18:12.501Z,-3.20
2023-02-08T18:21:00.517Z,-3.20
2023-02-08T18:23:49.625Z,-3.30
2023-02-08T18:26:36.540Z,-3.50
2023-02-08T18:29:23.480Z,-3.50
2023-02-08T18:32:10.910Z,-3.50
2023-02-08T18:34:58.668Z,-3.60
2023-02-08T18:37:49.539Z,-3.70
2023-02-08T18:40:36.362Z,-3.70
2023-02-08T18:43:23.057Z,-3.70
2023-02-08T18:46:12.276Z,-3.70
2023-02-08T18:48:59.469Z,-3.70
2023-02-08T18:51:47.795Z,-3.80
2023-02-08T18:54:36.350Z,-3.80
2023-02-08T18:57:23.379Z,-3.90
2023-02-08T19:00:11.760Z,-3.90
2023-02-08T19:02:58.970Z,-3.90
2023-02-08T19:05:46.493Z,-3.90
2023-02-08T19:08:35.080Z,-4.00
2023-02-08T19:11:25.468Z,-4.00
2023-02-08T19:14:14.013Z,-4.00
2023-02-08T19:17:00.801Z,-4.00
2023-02-08T19:19:48.271Z,-3.90
2023-02-08T19:22:35.368Z,-3.80
2023-02-08T19:25:22.481Z,-3.90
2023-02-08T19:28:11.064Z,-4.00
2023-02-08T19:31:04.510Z,-4.20
2023-02-08T19:33:57.030Z,-4.30
2023-02-08T19:36:46.505Z,-4.30
2023-02-08T19:39:33.422Z,-4.30
2023-02-08T19:42:20.410Z,-4.50
2023-02-08T19:45:10.304Z,-4.40
2023-02-08T19:47:57.223Z,-4.40
2023-02-08T19:50:44.334Z,-4.40
2023-02-08T19:53:34.232Z,-4.50
2023-02-08T19:56:21.596Z,-4.60
2023-02-08T19:59:15.852Z,-4.70
2023-02-08T20:02:04.552Z,-4.60
2023-02-08T20:04:51.861Z,-4.70
2023-02-08T20:07:38.792Z,-4.80
2023-02-08T20:10:26.526Z,-4.80
2023-02-08T20:13:14.446Z,-4.90
2023-02-08T20:16:01.868Z,-4.90
2023-02-08T20:18:50.748Z,-5.00
2023-02-08T20:21:40.252Z,-5.20
2023-02-08T20:24:30.649Z,-5.20
2023-02-08T20:27:21.105Z,-5.20
2023-02-08T20:30:12.171Z,-5.20
2023-02-08T20:32:59.293Z,-5.20
2023-02-08T20:35:48.080Z,-5.20
2023-02-08T20:38:35.747Z,-5.30
2023-02-08T20:41:23.947Z,-5.30
2023-02-08T20:44:11.930Z,-5.30
2023-02-08T20:46:58.895Z,-5.40
2023-02-08T20:49:45.855Z,-5.40
2023-02-08T20:52:34.454Z,-5.40
2023-02-08T20:55:21.965Z,-5.50
2023-02-08T20:58:09.457Z,-5.20
2023-02-08T21:00:56.626Z,-5.60
2023-02-08T21:03:43.956Z,-5.60
2023-02-08T21:06:32.762Z,-5.60
2023-02-08T21:09:21.942Z,-5.70
2023-02-08T21:12:09.450Z,-5.80
2023-02-08T21:14:56.326Z,-5.90
2023-02-08T21:17:43.682Z,-5.90
2023-02-08T21:20:31.717Z,-5.90
2023-02-08T21:23:18.751Z,-5.80
2023-02-08T21:26:09.207Z,-6.00
2023-02-08T21:28:59.301Z,-6.20
2023-02-08T21:31:48.027Z,-6.20
2023-02-08T21:34:35.932Z,-6.20
2023-02-08T21:37:23.641Z,-6.20
2023-02-08T21:40:11.691Z,-6.20
2023-02-08T21:43:01.013Z,-6.30
2023-02-08T21:45:48.658Z,-6.30
2023-02-08T21:48:56.915Z,-6.20
2023-02-08T21:52:02.400Z,-6.40
2023-02-08T21:54:53.781Z,-6.50
2023-02-08T21:57:41.266Z,-6.50
2023-02-08T22:00:30.324Z,-6.50
2023-02-08T22:03:18.227Z,-6.50
2023-02-08T22:06:05.761Z,-6.50
2023-02-08T22:08:52.709Z,-6.60
2023-02-08T22:11:41.010Z,-6.50
2023-02-08T22:14:28.532Z,-6.70
2023-02-08T22:17:17.214Z,-6.70
2023-02-08T22:20:04.531Z,-6.70
2023-02-08T22:22:55.045Z,-6.70
2023-02-08T22:25:43.609Z,-6.70
2023-02-08T22:28:30.807Z,-6.80
2023-02-08T22:31:18.401Z,-6.60
2023-02-08T22:34:07.724Z,-6.80
2023-02-08T22:36:55.184Z,-6.90
2023-02-08T22:39:42.535Z,-6.90
2023-02-08T22:42:30.040Z,-7.00
2023-02-08T22:45:16.951Z,-6.60
2023-02-08T22:48:06.223Z,-7.00
2023-02-08T22:50:56.136Z,-7.10
2023-02-08T22:53:43.357Z,-7.10
2023-02-08T22:56:30.426Z,-6.70
2023-02-08T22:59:17.891Z,-7.10
2023-02-08T23:02:05.523Z,-6.80
2023-02-08T23:04:52.774Z,-7.20
2023-02-08T23:07:43.082Z,-7.20
2023-02-08T23:10:30.308Z,-7.20
2023-02-08T23:13:17.450Z,-7.30
2023-02-08T23:16:04.748Z,-7.30
2023-02-08T23:18:52.161Z,-7.30
2023-02-08T23:21:39.865Z,-7.30
2023-02-08T23:24:28.834Z,-7.10
2023-02-08T23:27:15.834Z,-7.50
2023-02-08T23:30:03.118Z,-7.50
2023-02-08T23:32:50.419Z,-7.50
2023-02-08T23:35:41.170Z,-7.00
2023-02-08T23:38:28.357Z,-7.60
2023-02-08T23:41:20.432Z,-7.60
2023-02-08T23:44:07.506Z,-7.70
2023-02-08T23:46:54.728Z,-7.70
2023-02-08T23:49:41.778Z,-7.60
2023-02-08T23:52:28.932Z,-7.40
2023-02-08T23:55:15.846Z,-7.70
2023-02-08T23:58:04.160Z,-7.80
